Time;durP1;ratioP1;P1;durP2;ratioP2;P2;SDS_P1;SDS_P2;PMS_P1;PMS_P2;Temp;Humidity;BMP_temperature;BMP_pressure;BME280_temperature;BME280_humidity;BME280_pressure;Samples;Min_cycle;Max_cycle;Signal;HPM_P1;HPM_P2
2021/12/01 00:01:20;;;;;;;7.30;5.78;;;;;;;;;;4960590;29;20066;-80
2021/12/01 00:03:46;;;;;;;8.65;5.55;;;;;;;;;;4960321;29;20067;-81
2021/12/01 00:06:12;;;;;;;5.60;4.00;;;;;;;;;;4960788;29;20031;-81
2021/12/01 00:08:39;;;;;;;6.80;4.43;;;;;;;;;;4945458;29;20180;-81
2021/12/01 00:11:05;;;;;;;7.25;4.50;;;;;;;;;;4963210;29;20031;-81
2021/12/01 00:13:33;;;;;;;6.40;4.60;;;;;;;;;;4946836;29;20023;-81
2021/12/01 00:15:59;;;;;;;6.38;4.63;;;;;;;;;;4964878;29;20031;-81
2021/12/01 00:18:25;;;;;;;8.80;4.65;;;;;;;;;;4946306;28;20098;-81
2021/12/01 00:20:51;;;;;;;6.07;4.60;;;;;;;;;;4964536;28;20024;-81
2021/12/01 00:23:17;;;;;;;7.90;4.75;;;;;;;;;;4964224;28;20310;-81
2021/12/01 00:25:43;;;;;;;6.95;4.20;;;;;;;;;;4960015;28;20057;-81
2021/12/01 00:28:10;;;;;;;7.05;4.85;;;;;;;;;;4963974;28;20057;-83
2021/12/01 00:30:37;;;;;;;8.05;4.90;;;;;;;;;;4947899;29;20612;-81
2021/12/01 00:33:04;;;;;;;6.50;4.68;;;;;;;;;;4963329;29;20122;-81
2021/12/01 00:35:30;;;;;;;8.60;4.80;;;;;;;;;;4976318;28;20021;-81
2021/12/01 00:37:56;;;;;;;7.47;5.10;;;;;;;;;;4976912;28;20024;-81
2021/12/01 00:40:25;;;;;;;8.13;5.47;;;;;;;;;;4976996;28;20054;-80
2021/12/01 00:42:51;;;;;;;8.00;6.10;;;;;;;;;;4977015;28;20018;-81
2021/12/01 00:45:19;;;;;;;12.50;5.53;;;;;;;;;;4960288;28;20011;-82
2021/12/01 00:50:12;;;;;;;8.82;5.70;;;;;;;;;;4976948;28;20023;-82
2021/12/01 00:52:39;;;;;;;8.20;5.78;;;;;;;;;;4977410;28;20220;-82
2021/12/01 00:55:05;;;;;;;10.55;6.40;;;;;;;;;;4977291;28;20030;-82
2021/12/01 00:57:31;;;;;;;8.10;5.63;;;;;;;;;;4977500;28;20019;-82
2021/12/01 01:02:49;;;;;;;13.30;6.60;;;;;;;;;;4977794;28;20093;-81
2021/12/01 01:05:15;;;;;;;11.77;7.18;;;;;;;;;;4977695;28;20054;-83
2021/12/01 01:07:41;;;;;;;11.70;6.65;;;;;;;;;;4961107;28;20019;-81
2021/12/01 01:18:25;;;;;;;12.70;6.75;;;;;;;;;;4960427;28;20054;-79
2021/12/01 01:20:52;;;;;;;9.30;6.43;;;;;;;;;;4959383;29;20035;-79
2021/12/01 01:23:18;;;;;;;13.63;7.10;;;;;;;;;;4959502;29;20031;-79
2021/12/01 01:25:44;;;;;;;11.43;7.20;;;;;;;;;;4941604;29;20478;-80
2021/12/01 01:28:10;;;;;;;11.10;7.15;;;;;;;;;;4959409;28;20023;-80
2021/12/01 01:30:36;;;;;;;12.25;7.32;;;;;;;;;;4941475;29;20019;-80
2021/12/01 01:33:02;;;;;;;11.77;7.20;;;;;;;;;;4960404;29;20039;-81
2021/12/01 01:35:28;;;;;;;9.45;6.28;;;;;;;;;;4960309;28;20445;-79
2021/12/01 01:37:54;;;;;;;11.88;7.25;;;;;;;;;;4957964;28;20351;-79
2021/12/01 01:40:20;;;;;;;11.95;8.10;;;;;;;;;;4958614;29;20040;-80
2021/12/01 01:42:48;;;;;;;10.35;6.95;;;;;;;;;;4942407;29;20023;-79
2021/12/01 01:45:14;;;;;;;12.80;7.70;;;;;;;;;;4959361;29;20043;-79
2021/12/01 01:47:58;;;;;;;14.68;8.00;;;;;;;;;;4958860;29;20020;-80
2021/12/01 01:50:35;;;;;;;14.05;8.15;;;;;;;;;;4958330;29;20055;-79
2021/12/01 01:53:01;;;;;;;14.25;9.05;;;;;;;;;;4961112;29;20031;-80
2021/12/01 01:55:27;;;;;;;16.45;8.80;;;;;;;;;;4961300;29;20064;-80
2021/12/01 01:57:53;;;;;;;16.08;10.02;;;;;;;;;;4961215;29;20039;-80
2021/12/01 02:00:19;;;;;;;19.20;10.18;;;;;;;;;;4959461;28;20390;-80
2021/12/01 02:02:46;;;;;;;21.98;10.75;;;;;;;;;;4972108;28;20033;-80
2021/12/01 02:05:12;;;;;;;19.23;10.82;;;;;;;;;;4977820;28;20105;-80
2021/12/01 02:07:38;;;;;;;23.75;10.75;;;;;;;;;;4977684;28;20084;-80
2021/12/01 02:10:05;;;;;;;28.02;12.20;;;;;;;;;;4971657;28;20027;-80
2021/12/01 02:12:31;;;;;;;23.30;11.13;;;;;;;;;;4948096;28;20038;-80
2021/12/01 02:14:57;;;;;;;19.77;11.57;;;;;;;;;;4940079;29;20023;-80
2021/12/01 02:17:23;;;;;;;20.67;10.48;;;;;;;;;;4947013;29;20019;-79
2021/12/01 02:19:52;;;;;;;21.13;12.20;;;;;;;;;;4958783;29;20491;-79
2021/12/01 02:22:18;;;;;;;22.60;11.50;;;;;;;;;;4959883;28;20118;-80
2021/12/01 02:24:47;;;;;;;23.02;11.27;;;;;;;;;;4957213;29;20070;-80
2021/12/01 02:27:14;;;;;;;19.90;10.32;;;;;;;;;;4958217;29;20100;-79
2021/12/01 02:29:40;;;;;;;23.80;10.98;;;;;;;;;;4958098;28;20028;-79
2021/12/01 02:32:06;;;;;;;17.70;10.00;;;;;;;;;;4957105;29;20495;-80
2021/12/01 02:34:35;;;;;;;17.20;10.55;;;;;;;;;;4957624;29;20054;-80
2021/12/01 02:37:01;;;;;;;21.17;10.70;;;;;;;;;;5012942;28;20535;-80
2021/12/01 02:39:28;;;;;;;20.35;10.20;;;;;;;;;;4956689;29;20031;-80
2021/12/01 02:41:57;;;;;;;18.35;10.27;;;;;;;;;;4957038;29;20027;-80
2021/12/01 02:44:23;;;;;;;17.65;9.77;;;;;;;;;;4956177;29;20105;-80
2021/12/01 02:46:49;;;;;;;20.90;9.15;;;;;;;;;;4939180;28;20051;-80
2021/12/01 02:49:20;;;;;;;17.17;8.98;;;;;;;;;;4956327;29;20050;-80
2021/12/01 02:51:48;;;;;;;12.95;9.20;;;;;;;;;;4955185;29;20048;-80
2021/12/01 02:54:14;;;;;;;15.55;9.13;;;;;;;;;;4958640;29;20031;-80
2021/12/01 02:56:41;;;;;;;13.85;8.57;;;;;;;;;;4957986;29;20376;-80
2021/12/01 02:59:07;;;;;;;15.43;9.13;;;;;;;;;;4957869;28;20031;-80
2021/12/01 03:01:33;;;;;;;14.18;8.15;;;;;;;;;;4957589;29;20110;-81
2021/12/01 03:04:00;;;;;;;16.50;9.10;;;;;;;;;;4940173;29;20031;-81
2021/12/01 03:06:27;;;;;;;18.05;9.13;;;;;;;;;;4957094;29;20031;-81
2021/12/01 03:08:54;;;;;;;16.23;9.15;;;;;;;;;;4955174;28;20518;-81
2021/12/01 03:11:20;;;;;;;14.70;8.65;;;;;;;;;;4955172;28;20023;-81
2021/12/01 03:13:46;;;;;;;16.20;9.65;;;;;;;;;;4954857;28;20034;-81
2021/12/01 03:16:15;;;;;;;16.73;10.07;;;;;;;;;;4959176;28;20034;-81
2021/12/01 03:18:41;;;;;;;16.73;9.60;;;;;;;;;;4952978;29;20544;-80
2021/12/01 03:21:07;;;;;;;19.70;10.32;;;;;;;;;;4951224;28;20067;-81
2021/12/01 03:23:33;;;;;;;16.75;9.07;;;;;;;;;;4958878;29;20038;-80
2021/12/01 03:25:59;;;;;;;17.88;8.98;;;;;;;;;;4941066;29;20031;-81
2021/12/01 03:28:25;;;;;;;15.52;9.40;;;;;;;;;;4941061;28;20027;-80
2021/12/01 03:30:51;;;;;;;16.27;9.30;;;;;;;;;;4957526;28;20043;-80
2021/12/01 03:33:19;;;;;;;15.80;9.02;;;;;;;;;;4940459;29;20046;-81
2021/12/01 03:35:46;;;;;;;13.15;8.30;;;;;;;;;;4974974;28;20017;-80
2021/12/01 03:38:13;;;;;;;15.85;8.65;;;;;;;;;;5038265;28;20034;-81
2021/12/01 03:40:39;;;;;;;16.08;8.95;;;;;;;;;;5038200;28;20093;-81
2021/12/01 03:43:06;;;;;;;16.73;8.70;;;;;;;;;;5017371;28;20019;-81
2021/12/01 03:45:32;;;;;;;13.52;8.63;;;;;;;;;;4959556;29;20115;-81
2021/12/01 03:47:58;;;;;;;13.77;8.10;;;;;;;;;;4941973;28;20046;-81
2021/12/01 03:50:25;;;;;;;13.88;8.27;;;;;;;;;;4960088;29;20127;-81
2021/12/01 03:52:51;;;;;;;11.35;7.80;;;;;;;;;;4960184;29;20069;-81
2021/12/01 03:55:17;;;;;;;13.27;7.75;;;;;;;;;;4959993;29;20050;-81
2021/12/01 03:57:44;;;;;;;13.20;7.40;;;;;;;;;;4959043;28;20402;-81
2021/12/01 04:00:11;;;;;;;13.20;6.82;;;;;;;;;;4941850;29;20043;-80
2021/12/01 04:02:37;;;;;;;12.32;6.97;;;;;;;;;;4959955;29;20054;-81
2021/12/01 04:05:03;;;;;;;14.30;7.45;;;;;;;;;;4940881;29;20023;-81
2021/12/01 04:07:29;;;;;;;12.07;7.07;;;;;;;;;;4958435;28;20118;-81
2021/12/01 04:09:55;;;;;;;10.02;6.28;;;;;;;;;;4942571;29;20047;-80
2021/12/01 04:12:22;;;;;;;13.18;6.57;;;;;;;;;;4940540;28;20031;-80
2021/12/01 04:14:48;;;;;;;12.05;6.13;;;;;;;;;;4941068;28;20032;-80
2021/12/01 04:17:14;;;;;;;9.25;5.82;;;;;;;;;;4958317;29;20110;-81
2021/12/01 04:19:40;;;;;;;13.65;6.00;;;;;;;;;;4940492;28;20038;-79
2021/12/01 04:22:06;;;;;;;9.23;5.95;;;;;;;;;;4940268;29;20371;-80
2021/12/01 04:24:32;;;;;;;9.35;5.90;;;;;;;;;;4958268;28;20142;-80
2021/12/01 04:26:58;;;;;;;9.05;5.32;;;;;;;;;;4959017;29;20508;-80
2021/12/01 04:29:26;;;;;;;10.27;5.25;;;;;;;;;;4940598;28;20023;-81
2021/12/01 04:31:52;;;;;;;18.95;5.75;;;;;;;;;;4958074;29;20027;-80
2021/12/01 04:34:20;;;;;;;7.18;4.75;;;;;;;;;;4957576;29;20035;-80
2021/12/01 04:36:47;;;;;;;10.30;5.03;;;;;;;;;;4990942;28;20026;-80
2021/12/01 04:39:14;;;;;;;7.80;4.95;;;;;;;;;;5038454;28;20022;-81
2021/12/01 04:41:55;;;;;;;9.43;5.18;;;;;;;;;;5020939;28;20029;-80
2021/12/01 04:44:22;;;;;;;5.88;4.05;;;;;;;;;;5020879;28;20032;-80
2021/12/01 04:46:49;;;;;;;10.27;4.72;;;;;;;;;;4995307;28;20477;-80
2021/12/01 04:49:17;;;;;;;9.80;4.93;;;;;;;;;;4956633;28;20467;-79
2021/12/01 04:51:44;;;;;;;7.53;4.78;;;;;;;;;;4956036;28;20038;-79
2021/12/01 04:54:11;;;;;;;11.38;4.57;;;;;;;;;;4955274;28;20039;-79
2021/12/01 04:56:37;;;;;;;5.28;4.30;;;;;;;;;;4955718;29;20031;-80
2021/12/01 04:59:04;;;;;;;6.25;4.45;;;;;;;;;;4955999;28;20063;-80
2021/12/01 05:01:30;;;;;;;7.93;3.97;;;;;;;;;;4955647;29;20031;-80
2021/12/01 05:03:56;;;;;;;5.30;4.00;;;;;;;;;;4955822;29;20073;-80
2021/12/01 05:06:22;;;;;;;5.70;4.22;;;;;;;;;;4956225;29;20023;-79
2021/12/01 05:08:49;;;;;;;6.20;4.13;;;;;;;;;;4956175;28;20028;-80
2021/12/01 05:11:15;;;;;;;6.97;3.72;;;;;;;;;;4955322;29;20046;-81
2021/12/01 05:13:41;;;;;;;9.80;4.05;;;;;;;;;;4953778;29;20035;-80
2021/12/01 05:16:07;;;;;;;8.38;4.18;;;;;;;;;;4937329;29;20047;-80
2021/12/01 05:18:33;;;;;;;8.25;4.57;;;;;;;;;;4940219;28;20028;-80
2021/12/01 05:20:59;;;;;;;9.05;4.70;;;;;;;;;;4937448;28;20057;-81
2021/12/01 05:23:25;;;;;;;4.57;3.70;;;;;;;;;;4943898;29;20499;-81
2021/12/01 05:25:51;;;;;;;6.00;4.22;;;;;;;;;;4946943;29;20027;-81
2021/12/01 05:28:17;;;;;;;7.15;4.15;;;;;;;;;;4953462;28;20112;-80
2021/12/01 05:30:44;;;;;;;5.57;3.70;;;;;;;;;;4953258;29;20067;-82
2021/12/01 05:33:11;;;;;;;7.65;4.07;;;;;;;;;;4953135;29;20514;-82
2021/12/01 05:35:37;;;;;;;7.22;3.70;;;;;;;;;;4952123;29;20032;-82
2021/12/01 05:38:04;;;;;;;6.78;3.90;;;;;;;;;;4998481;28;20024;-81
2021/12/01 05:40:31;;;;;;;5.68;4.00;;;;;;;;;;4933826;28;20463;-82
2021/12/01 05:42:58;;;;;;;6.50;3.30;;;;;;;;;;4934654;28;20024;-82
2021/12/01 05:45:24;;;;;;;6.30;4.10;;;;;;;;;;4934208;28;20086;-82
2021/12/01 05:47:50;;;;;;;4.50;3.13;;;;;;;;;;4952222;28;20020;-80
2021/12/01 05:50:16;;;;;;;4.47;3.08;;;;;;;;;;4952560;28;20103;-80
2021/12/01 05:52:42;;;;;;;5.68;3.65;;;;;;;;;;4945378;28;20038;-82
2021/12/01 05:55:09;;;;;;;4.35;3.65;;;;;;;;;;4943134;28;20055;-82
2021/12/01 05:57:35;;;;;;;5.00;3.78;;;;;;;;;;5001662;28;20101;-81
2021/12/01 06:00:02;;;;;;;5.80;3.97;;;;;;;;;;4935005;28;20084;-83
2021/12/01 06:02:28;;;;;;;4.43;3.88;;;;;;;;;;4935069;28;20101;-82
2021/12/01 06:04:54;;;;;;;4.40;3.75;;;;;;;;;;4935341;28;20028;-81
2021/12/01 06:07:20;;;;;;;3.78;3.35;;;;;;;;;;4935163;28;20588;-82
2021/12/01 06:09:46;;;;;;;7.70;3.35;;;;;;;;;;4940782;28;20027;-79
2021/12/01 06:12:13;;;;;;;5.38;3.58;;;;;;;;;;5014291;28;20432;-82
2021/12/01 06:14:42;;;;;;;3.80;2.85;;;;;;;;;;4946579;28;20062;-82
2021/12/01 06:17:10;;;;;;;4.55;3.42;;;;;;;;;;5004324;28;20030;-82
2021/12/01 06:19:36;;;;;;;7.57;3.40;;;;;;;;;;4948764;29;20035;-83
2021/12/01 06:22:05;;;;;;;5.13;3.72;;;;;;;;;;4957257;29;20027;-82
2021/12/01 06:24:32;;;;;;;6.03;3.70;;;;;;;;;;4945712;29;20023;-81
2021/12/01 06:26:58;;;;;;;5.20;3.40;;;;;;;;;;4937151;28;20027;-82
2021/12/01 06:29:24;;;;;;;5.72;3.33;;;;;;;;;;4918174;28;20032;-83
2021/12/01 06:31:50;;;;;;;4.38;3.55;;;;;;;;;;4934274;28;20032;-82
2021/12/01 06:34:16;;;;;;;5.05;3.60;;;;;;;;;;4916937;28;20032;-80
2021/12/01 06:36:42;;;;;;;5.30;3.33;;;;;;;;;;4928615;28;20399;-81
2021/12/01 06:39:09;;;;;;;5.18;3.70;;;;;;;;;;4953410;28;20023;-82
2021/12/01 06:41:35;;;;;;;4.68;3.30;;;;;;;;;;4953108;29;20078;-82
2021/12/01 06:44:01;;;;;;;6.63;3.08;;;;;;;;;;4952828;29;20406;-81
2021/12/01 06:46:28;;;;;;;3.83;3.03;;;;;;;;;;4953502;29;20118;-82
2021/12/01 06:48:55;;;;;;;6.47;3.50;;;;;;;;;;4953582;28;20081;-81
2021/12/01 06:51:21;;;;;;;5.90;3.22;;;;;;;;;;4954436;29;20027;-82
2021/12/01 06:53:47;;;;;;;4.78;3.03;;;;;;;;;;4954140;29;20395;-82
2021/12/01 06:56:15;;;;;;;6.85;3.05;;;;;;;;;;4954783;29;20118;-83
2021/12/01 06:58:42;;;;;;;4.68;3.10;;;;;;;;;;4954678;28;20019;-82
2021/12/01 07:01:08;;;;;;;3.70;2.92;;;;;;;;;;4936870;29;20027;-81
2021/12/01 07:03:34;;;;;;;5.25;2.78;;;;;;;;;;4936534;29;20023;-82
2021/12/01 07:06:01;;;;;;;4.03;3.08;;;;;;;;;;4954900;29;20393;-83
2021/12/01 07:08:27;;;;;;;2.95;2.50;;;;;;;;;;4953488;28;20402;-83
2021/12/01 07:10:53;;;;;;;2.42;2.22;;;;;;;;;;4953735;29;20491;-83
2021/12/01 07:13:19;;;;;;;4.40;2.60;;;;;;;;;;4919357;29;20094;-83
2021/12/01 07:15:45;;;;;;;6.40;3.08;;;;;;;;;;4934979;29;20032;-83
2021/12/01 07:18:11;;;;;;;3.40;2.53;;;;;;;;;;4934001;28;20028;-82
2021/12/01 07:20:37;;;;;;;2.72;2.20;;;;;;;;;;4934493;29;20031;-81
2021/12/01 07:23:03;;;;;;;2.95;2.38;;;;;;;;;;4934262;29;20031;-84
2021/12/01 07:25:30;;;;;;;3.10;2.05;;;;;;;;;;4933951;29;20380;-84
2021/12/01 07:27:56;;;;;;;8.25;2.20;;;;;;;;;;4934493;29;20028;-84
2021/12/01 07:30:22;;;;;;;3.13;2.00;;;;;;;;;;4934725;29;20028;-83
2021/12/01 07:32:49;;;;;;;3.22;2.00;;;;;;;;;;4916896;29;20397;-84
2021/12/01 07:35:16;;;;;;;2.63;1.85;;;;;;;;;;4933728;29;20028;-83
2021/12/01 07:37:42;;;;;;;3.20;1.90;;;;;;;;;;4936519;29;20077;-82
2021/12/01 07:40:08;;;;;;;2.92;2.28;;;;;;;;;;4936200;29;20037;-80
2021/12/01 07:42:35;;;;;;;7.07;1.98;;;;;;;;;;4917731;29;20102;-81
2021/12/01 07:45:01;;;;;;;3.63;1.65;;;;;;;;;;4934088;28;20035;-81
2021/12/01 07:47:27;;;;;;;2.08;1.63;;;;;;;;;;4934410;28;20087;-83
2021/12/01 07:49:53;;;;;;;3.55;2.03;;;;;;;;;;4934333;28;20020;-82
2021/12/01 07:52:19;;;;;;;3.78;2.08;;;;;;;;;;4917794;28;20513;-83
2021/12/01 07:54:46;;;;;;;2.08;1.60;;;;;;;;;;4934130;29;20430;-83
2021/12/01 07:57:12;;;;;;;2.40;1.65;;;;;;;;;;4944095;28;20085;-82
2021/12/01 07:59:38;;;;;;;1.50;1.40;;;;;;;;;;4952992;28;20031;-83
2021/12/01 08:02:04;;;;;;;2.00;1.70;;;;;;;;;;4935868;29;20081;-82
2021/12/01 08:04:30;;;;;;;2.67;1.70;;;;;;;;;;4953249;29;20063;-82
2021/12/01 08:06:56;;;;;;;1.38;1.27;;;;;;;;;;4953287;29;20024;-83
2021/12/01 08:09:24;;;;;;;1.75;1.50;;;;;;;;;;4953279;28;20023;-82
2021/12/01 08:11:50;;;;;;;2.05;1.42;;;;;;;;;;4947837;29;20024;-82
2021/12/01 08:14:16;;;;;;;1.63;1.40;;;;;;;;;;4933918;28;20070;-81
2021/12/01 08:16:43;;;;;;;2.70;1.27;;;;;;;;;;4937058;28;20042;-80
2021/12/01 08:19:09;;;;;;;3.22;1.25;;;;;;;;;;4953595;28;20023;-82
2021/12/01 08:21:35;;;;;;;2.72;1.13;;;;;;;;;;4952711;29;20059;-81
2021/12/01 08:24:01;;;;;;;1.05;1.00;;;;;;;;;;4940158;28;20081;-82
2021/12/01 08:26:27;;;;;;;1.27;1.10;;;;;;;;;;4934547;28;20027;-82
2021/12/01 08:28:53;;;;;;;1.58;1.30;;;;;;;;;;4951786;28;20043;-81
2021/12/01 08:31:20;;;;;;;5.75;1.20;;;;;;;;;;4938618;28;20032;-82
2021/12/01 08:33:46;;;;;;;1.50;1.17;;;;;;;;;;4954540;28;20031;-81
2021/12/01 08:36:12;;;;;;;1.08;1.00;;;;;;;;;;4946958;28;20020;-80
2021/12/01 08:38:38;;;;;;;1.10;1.00;;;;;;;;;;4938044;29;20031;-81
2021/12/01 08:41:05;;;;;;;1.58;1.20;;;;;;;;;;4945786;28;20031;-81
2021/12/01 08:43:31;;;;;;;1.58;1.10;;;;;;;;;;4939941;29;20020;-82
2021/12/01 08:45:58;;;;;;;1.10;1.00;;;;;;;;;;4934735;28;20023;-82
2021/12/01 08:48:24;;;;;;;1.20;1.10;;;;;;;;;;4946542;28;20023;-82
2021/12/01 08:50:50;;;;;;;3.20;1.00;;;;;;;;;;4954412;29;20038;-81
2021/12/01 08:53:16;;;;;;;1.10;1.00;;;;;;;;;;4953907;29;20470;-80
2021/12/01 08:55:43;;;;;;;1.45;1.10;;;;;;;;;;4954157;29;20065;-81
2021/12/01 08:58:10;;;;;;;1.00;0.90;;;;;;;;;;4953571;28;20102;-82
2021/12/01 09:00:38;;;;;;;1.25;0.80;;;;;;;;;;4953934;29;20109;-82
2021/12/01 09:03:04;;;;;;;1.13;1.02;;;;;;;;;;4953754;29;20568;-80
2021/12/01 09:05:31;;;;;;;2.55;0.88;;;;;;;;;;4953436;29;20110;-80
2021/12/01 09:08:00;;;;;;;1.17;1.08;;;;;;;;;;4953983;29;20470;-81
2021/12/01 09:10:26;;;;;;;1.13;1.02;;;;;;;;;;4935973;29;20097;-80
2021/12/01 09:12:53;;;;;;;3.70;1.33;;;;;;;;;;4946051;29;20459;-81
2021/12/01 09:15:19;;;;;;;0.93;0.93;;;;;;;;;;4938963;28;20035;-80
2021/12/01 09:17:46;;;;;;;1.33;1.00;;;;;;;;;;4946496;28;20500;-82
2021/12/01 09:20:12;;;;;;;2.85;1.00;;;;;;;;;;4954957;28;20031;-81
2021/12/01 09:22:38;;;;;;;1.02;0.95;;;;;;;;;;4954729;29;20046;-83
2021/12/01 09:25:04;;;;;;;0.70;0.70;;;;;;;;;;4925078;29;20082;-81
2021/12/01 09:27:30;;;;;;;2.25;1.10;;;;;;;;;;4935926;28;20035;-81
2021/12/01 09:29:56;;;;;;;1.00;1.00;;;;;;;;;;4936742;29;20039;-80
2021/12/01 09:32:22;;;;;;;2.22;1.00;;;;;;;;;;4936635;29;20487;-82
2021/12/01 09:34:48;;;;;;;1.42;1.00;;;;;;;;;;4936754;28;20106;-80
2021/12/01 09:37:16;;;;;;;3.15;0.90;;;;;;;;;;4952630;28;20034;-81
2021/12/01 09:39:42;;;;;;;2.15;1.30;;;;;;;;;;4955965;28;20031;-80
2021/12/01 09:42:08;;;;;;;1.08;0.90;;;;;;;;;;4954723;28;20073;-82
2021/12/01 09:44:35;;;;;;;1.10;1.00;;;;;;;;;;4954760;29;20035;-80
2021/12/01 09:47:04;;;;;;;1.13;1.02;;;;;;;;;;4938722;29;20164;-82
2021/12/01 09:49:31;;;;;;;0.88;0.80;;;;;;;;;;4965424;28;20169;-82
2021/12/01 09:51:57;;;;;;;1.38;0.93;;;;;;;;;;4966186;29;20031;-81
2021/12/01 09:54:23;;;;;;;0.70;0.70;;;;;;;;;;4959462;29;20110;-81
2021/12/01 09:56:49;;;;;;;1.17;0.75;;;;;;;;;;4956121;29;20058;-83
2021/12/01 09:59:16;;;;;;;1.48;0.80;;;;;;;;;;4962814;28;20012;-81
2021/12/01 10:01:42;;;;;;;0.85;0.85;;;;;;;;;;4965539;29;20034;-81
2021/12/01 10:04:08;;;;;;;0.82;0.75;;;;;;;;;;4942841;29;20027;-79
2021/12/01 10:06:34;;;;;;;2.08;1.00;;;;;;;;;;4954309;29;20042;-80
2021/12/01 10:09:02;;;;;;;1.02;0.93;;;;;;;;;;4954971;28;20019;-81
2021/12/01 10:11:33;;;;;;;0.88;0.77;;;;;;;;;;4951842;29;20038;-80
2021/12/01 10:14:03;;;;;;;0.80;0.80;;;;;;;;;;4935059;29;20023;-80
2021/12/01 10:16:30;;;;;;;2.15;0.90;;;;;;;;;;4918042;29;20063;-81
2021/12/01 10:18:58;;;;;;;0.82;0.82;;;;;;;;;;4934907;29;20032;-80
2021/12/01 10:21:24;;;;;;;2.65;0.75;;;;;;;;;;4934133;29;20052;-80
2021/12/01 10:23:57;;;;;;;0.80;0.80;;;;;;;;;;4918635;29;20047;-81
2021/12/01 10:26:25;;;;;;;1.05;0.80;;;;;;;;;;4952513;29;20498;-81
2021/12/01 10:28:59;;;;;;;0.88;0.82;;;;;;;;;;4936191;29;20034;-81
2021/12/01 10:31:33;;;;;;;0.80;0.80;;;;;;;;;;4935987;29;20447;-82
2021/12/01 10:34:17;;;;;;;2.05;0.90;;;;;;;;;;4952982;29;20023;-81
2021/12/01 10:36:45;;;;;;;1.38;0.77;;;;;;;;;;4941955;28;20024;-80
2021/12/01 10:39:11;;;;;;;1.80;0.70;;;;;;;;;;4934171;28;20113;-81
2021/12/01 10:41:38;;;;;;;1.00;1.00;;;;;;;;;;4934060;28;20032;-81
2021/12/01 10:44:10;;;;;;;2.05;1.10;;;;;;;;;;4933981;28;20107;-80
2021/12/01 10:46:44;;;;;;;2.10;0.73;;;;;;;;;;4916549;28;20027;-81
2021/12/01 10:49:10;;;;;;;0.80;0.80;;;;;;;;;;4933451;28;20038;-82
2021/12/01 10:51:37;;;;;;;0.80;0.77;;;;;;;;;;4933876;28;20082;-83
2021/12/01 10:54:05;;;;;;;1.15;0.88;;;;;;;;;;4933046;29;20031;-80
2021/12/01 10:56:31;;;;;;;1.00;0.80;;;;;;;;;;4933724;28;20031;-81
2021/12/01 10:59:08;;;;;;;2.05;1.00;;;;;;;;;;4916078;28;20470;-80
2021/12/01 11:01:34;;;;;;;1.38;0.82;;;;;;;;;;4932781;28;20055;-80
2021/12/01 11:04:00;;;;;;;0.70;0.70;;;;;;;;;;4932871;28;20398;-81
2021/12/01 11:06:27;;;;;;;1.58;0.90;;;;;;;;;;4934852;28;20034;-81
2021/12/01 11:08:58;;;;;;;0.85;0.70;;;;;;;;;;4934877;28;20059;-81
2021/12/01 11:11:26;;;;;;;3.03;1.00;;;;;;;;;;4920087;29;20031;-81
2021/12/01 11:13:52;;;;;;;1.30;0.93;;;;;;;;;;4964142;29;20030;-82
2021/12/01 11:16:18;;;;;;;1.35;1.00;;;;;;;;;;4956181;29;20029;-83
2021/12/01 11:18:49;;;;;;;1.75;0.95;;;;;;;;;;4919256;28;20086;-81
2021/12/01 11:21:21;;;;;;;0.88;0.80;;;;;;;;;;4936915;29;20030;-82
2021/12/01 11:23:55;;;;;;;1.15;0.70;;;;;;;;;;4937708;28;20058;-82
2021/12/01 11:26:22;;;;;;;1.00;0.80;;;;;;;;;;4955154;29;20035;-85
2021/12/01 11:28:48;;;;;;;1.08;0.90;;;;;;;;;;4938238;29;20034;-82
2021/12/01 11:31:17;;;;;;;2.15;1.10;;;;;;;;;;4941369;29;20031;-79
2021/12/01 11:33:44;;;;;;;1.27;0.85;;;;;;;;;;4956944;28;20084;-81
2021/12/01 11:36:12;;;;;;;0.90;0.80;;;;;;;;;;4949497;29;20028;-83
2021/12/01 11:38:38;;;;;;;0.90;0.90;;;;;;;;;;4920246;28;20027;-81
2021/12/01 11:41:08;;;;;;;1.20;0.80;;;;;;;;;;4937375;28;20086;-82
2021/12/01 11:43:35;;;;;;;0.90;0.90;;;;;;;;;;4937370;28;20028;-82
2021/12/01 11:46:01;;;;;;;1.27;0.70;;;;;;;;;;4936247;28;20387;-81
2021/12/01 11:48:28;;;;;;;1.85;0.90;;;;;;;;;;4918623;28;20498;-82
2021/12/01 11:50:58;;;;;;;0.88;0.88;;;;;;;;;;4934960;28;20482;-82
2021/12/01 11:53:34;;;;;;;1.77;0.90;;;;;;;;;;4935916;28;20447;-82
2021/12/01 11:56:29;;;;;;;1.10;1.00;;;;;;;;;;4935296;28;20496;-81
2021/12/01 11:59:14;;;;;;;0.70;0.70;;;;;;;;;;4943595;28;20127;-83
2021/12/01 12:01:41;;;;;;;1.05;0.95;;;;;;;;;;4934918;28;20103;-80
2021/12/01 12:04:09;;;;;;;0.80;0.80;;;;;;;;;;4919325;28;20027;-81
2021/12/01 12:07:08;;;;;;;2.38;0.95;;;;;;;;;;4922121;29;20020;-83
2021/12/01 12:09:34;;;;;;;0.80;0.80;;;;;;;;;;4944879;28;20043;-82
2021/12/01 12:12:00;;;;;;;1.27;1.17;;;;;;;;;;4927600;28;20023;-82
2021/12/01 12:14:31;;;;;;;1.48;1.13;;;;;;;;;;4957110;29;20042;-80
2021/12/01 12:16:57;;;;;;;;;;;;;;;;;;4952300;29;20050;-82
2021/12/01 12:19:44;;;;;;;0.85;0.85;;;;;;;;;;4919880;28;20378;-82
2021/12/01 12:22:18;;;;;;;0.70;0.70;;;;;;;;;;4937666;29;20051;-81
2021/12/01 12:24:50;;;;;;;1.50;1.17;;;;;;;;;;4929159;28;20058;-82
2021/12/01 12:27:34;;;;;;;0.98;0.90;;;;;;;;;;4957395;29;20479;-82
2021/12/01 12:30:06;;;;;;;0.63;0.63;;;;;;;;;;4956864;28;20028;-82
2021/12/01 12:32:33;;;;;;;3.35;0.80;;;;;;;;;;4957572;29;20035;-82
2021/12/01 12:35:01;;;;;;;2.45;0.88;;;;;;;;;;4958110;29;20110;-82
2021/12/01 12:37:30;;;;;;;0.88;0.77;;;;;;;;;;4940117;29;20059;-82
2021/12/01 12:39:57;;;;;;;2.92;0.93;;;;;;;;;;4939125;28;20078;-83
2021/12/01 12:42:23;;;;;;;0.70;0.70;;;;;;;;;;4939094;28;20062;-82
2021/12/01 12:44:53;;;;;;;0.80;0.80;;;;;;;;;;4938170;28;20505;-83
2021/12/01 12:47:24;;;;;;;1.00;0.90;;;;;;;;;;4919173;28;20035;-83
2021/12/01 12:49:54;;;;;;;0.77;0.70;;;;;;;;;;4937197;29;20391;-81
2021/12/01 12:52:26;;;;;;;1.58;0.85;;;;;;;;;;4936844;28;20094;-82
2021/12/01 12:54:56;;;;;;;1.10;0.93;;;;;;;;;;4936189;28;20061;-82
2021/12/01 12:57:23;;;;;;;4.33;1.07;;;;;;;;;;4936753;28;20027;-82
2021/12/01 12:59:49;;;;;;;1.05;0.88;;;;;;;;;;4920177;28;20081;-81
2021/12/01 13:02:15;;;;;;;0.98;0.77;;;;;;;;;;4936727;28;20039;-80
2021/12/01 13:07:32;;;;;;;2.35;1.00;;;;;;;;;;4936318;28;20063;-81
2021/12/01 13:10:07;;;;;;;1.25;1.10;;;;;;;;;;4918794;28;20089;-80
2021/12/01 13:12:52;;;;;;;1.15;1.02;;;;;;;;;;4951535;29;20031;-83
2021/12/01 13:15:23;;;;;;;1.98;1.05;;;;;;;;;;4945335;29;20091;-82
2021/12/01 13:17:49;;;;;;;;;;;;;;;;;;4947285;29;20028;-82
2021/12/01 13:20:19;;;;;;;1.30;1.10;;;;;;;;;;4938575;28;20340;-82
2021/12/01 13:23:17;;;;;;;1.10;1.00;;;;;;;;;;4920896;28;20043;-82
2021/12/01 13:26:00;;;;;;;0.80;0.80;;;;;;;;;;4925473;29;20059;-82
2021/12/01 13:28:37;;;;;;;1.83;0.90;;;;;;;;;;4957624;28;20035;-82
2021/12/01 13:31:08;;;;;;;1.23;1.13;;;;;;;;;;4956211;28;20370;-82
2021/12/01 13:33:34;;;;;;;2.33;1.02;;;;;;;;;;4956395;29;20107;-81
2021/12/01 13:36:14;;;;;;;1.77;1.23;;;;;;;;;;4933066;28;20032;-81
2021/12/01 13:38:40;;;;;;;1.15;1.05;;;;;;;;;;4937311;29;20056;-79
2021/12/01 13:41:07;;;;;;;1.10;1.00;;;;;;;;;;4920361;29;20036;-82
2021/12/01 13:43:34;;;;;;;1.00;1.00;;;;;;;;;;4937011;29;20479;-82
2021/12/01 13:46:01;;;;;;;1.30;1.20;;;;;;;;;;4936267;29;20066;-82
2021/12/01 13:48:28;;;;;;;1.20;1.10;;;;;;;;;;4936277;29;20028;-82
2021/12/01 13:51:11;;;;;;;1.50;1.23;;;;;;;;;;4937731;29;20407;-83
2021/12/01 13:53:37;;;;;;;1.75;1.10;;;;;;;;;;4945200;29;20054;-82
2021/12/01 13:56:14;;;;;;;2.28;1.30;;;;;;;;;;4949468;29;20062;-83
2021/12/01 13:58:40;;;;;;;3.17;1.05;;;;;;;;;;4942099;29;20200;-81
2021/12/01 14:01:07;;;;;;;1.65;1.05;;;;;;;;;;4937990;29;20028;-83
2021/12/01 14:03:34;;;;;;;2.65;1.17;;;;;;;;;;4921186;29;20050;-83
2021/12/01 14:06:05;;;;;;;1.70;1.35;;;;;;;;;;4938567;29;20090;-83
2021/12/01 14:08:31;;;;;;;1.85;1.13;;;;;;;;;;4919546;29;20059;-82
2021/12/01 14:10:59;;;;;;;1.27;1.17;;;;;;;;;;4937902;29;20431;-83
2021/12/01 14:13:28;;;;;;;1.55;1.45;;;;;;;;;;4954664;29;20035;-82
2021/12/01 14:15:55;;;;;;;1.75;1.25;;;;;;;;;;4956890;29;20057;-83
2021/12/01 14:18:21;;;;;;;2.20;1.30;;;;;;;;;;4939899;28;20633;-83
2021/12/01 14:20:48;;;;;;;1.38;1.25;;;;;;;;;;4956757;28;20024;-83
2021/12/01 14:23:15;;;;;;;2.13;1.33;;;;;;;;;;4941674;28;20020;-83
2021/12/01 14:25:48;;;;;;;2.03;1.27;;;;;;;;;;4939322;28;20491;-81
2021/12/01 14:28:14;;;;;;;1.50;1.30;;;;;;;;;;4919816;29;20451;-82
2021/12/01 14:30:45;;;;;;;1.10;0.95;;;;;;;;;;4919844;29;20032;-82
2021/12/01 14:33:12;;;;;;;4.75;1.42;;;;;;;;;;4918341;28;20490;-83
2021/12/01 14:35:38;;;;;;;3.05;1.10;;;;;;;;;;4939938;29;20031;-83
2021/12/01 14:38:07;;;;;;;4.95;1.42;;;;;;;;;;4957430;29;20267;-83
2021/12/01 14:41:02;;;;;;;1.58;1.20;;;;;;;;;;4958593;29;20023;-80
2021/12/01 14:43:32;;;;;;;4.53;0.95;;;;;;;;;;4946153;29;20077;-82
2021/12/01 14:46:18;;;;;;;2.13;1.38;;;;;;;;;;4937943;29;20035;-80
2021/12/01 14:48:44;;;;;;;1.35;1.23;;;;;;;;;;4955603;29;20102;-81
2021/12/01 14:51:12;;;;;;;1.67;1.05;;;;;;;;;;4955037;29;20042;-82
2021/12/01 14:53:39;;;;;;;4.00;1.48;;;;;;;;;;4955281;29;20499;-82
2021/12/01 14:56:05;;;;;;;1.80;1.27;;;;;;;;;;4955210;29;20096;-82
2021/12/01 14:58:32;;;;;;;1.95;1.48;;;;;;;;;;4939890;29;20485;-82
2021/12/01 15:01:00;;;;;;;2.75;1.48;;;;;;;;;;4955986;29;20537;-84